sensor_id;sensor_type;location;lat;lon;timestamp;pressure;altitude;pressure_sealevel;temperature;humidity
47082;BME280;33066;49.296;14.470;2023-01-15T00:00:31;96144.51;;;12.07;39.49
47082;BME280;33066;49.296;14.470;2023-01-15T00:02:56;96134.25;;;12.34;39.43
47082;BME280;33066;49.296;14.470;2023-01-15T00:05:22;96128.62;;;12.19;39.55
47082;BME280;33066;49.296;14.470;2023-01-15T00:07:47;96121.12;;;12.25;39.50
47082;BME280;33066;49.296;14.470;2023-01-15T00:10:12;96118.42;;;12.26;39.50
47082;BME280;33066;49.296;14.470;2023-01-15T00:12:38;96115.19;;;12.26;39.42
47082;BME280;33066;49.296;14.470;2023-01-15T00:15:04;96110.07;;;12.27;39.45
47082;BME280;33066;49.296;14.470;2023-01-15T00:17:29;96111.38;;;12.34;39.36
47082;BME280;33066;49.296;14.470;2023-01-15T00:19:54;96115.29;;;12.25;39.30
47082;BME280;33066;49.296;14.470;2023-01-15T00:22:19;96116.74;;;12.23;39.15
47082;BME280;33066;49.296;14.470;2023-01-15T00:24:45;96118.31;;;12.14;39.00
47082;BME280;33066;49.296;14.470;2023-01-15T00:27:10;96112.68;;;12.07;39.02
47082;BME280;33066;49.296;14.470;2023-01-15T00:29:35;96112.11;;;12.18;38.86
47082;BME280;33066;49.296;14.470;2023-01-15T00:32:03;96105.98;;;12.24;38.67
47082;BME280;33066;49.296;14.470;2023-01-15T00:34:27;96110.73;;;12.01;39.02
47082;BME280;33066;49.296;14.470;2023-01-15T00:36:52;96100.35;;;11.98;38.73
47082;BME280;33066;49.296;14.470;2023-01-15T00:39:17;96103.56;;;12.14;38.65
47082;BME280;33066;49.296;14.470;2023-01-15T00:41:42;96095.11;;;12.41;38.67
47082;BME280;33066;49.296;14.470;2023-01-15T00:44:07;96092.19;;;12.15;38.75
47082;BME280;33066;49.296;14.470;2023-01-15T00:46:33;96091.08;;;12.22;38.70
47082;BME280;33066;49.296;14.470;2023-01-15T00:48:58;96086.37;;;12.37;38.57
47082;BME280;33066;49.296;14.470;2023-01-15T00:51:24;96089.62;;;12.36;38.52
47082;BME280;33066;49.296;14.470;2023-01-15T00:53:49;96089.79;;;12.66;38.39
47082;BME280;33066;49.296;14.470;2023-01-15T00:56:14;96086.12;;;12.39;38.42
47082;BME280;33066;49.296;14.470;2023-01-15T00:58:40;96092.13;;;12.53;38.29
47082;BME280;33066;49.296;14.470;2023-01-15T01:01:05;96091.73;;;12.63;38.14
47082;BME280;33066;49.296;14.470;2023-01-15T01:03:30;96097.06;;;12.63;38.08
47082;BME280;33066;49.296;14.470;2023-01-15T01:06:01;96098.17;;;12.40;38.00
47082;BME280;33066;49.296;14.470;2023-01-15T01:08:21;96101.67;;;12.57;38.01
47082;BME280;33066;49.296;14.470;2023-01-15T01:10:46;96092.82;;;12.68;37.87
47082;BME280;33066;49.296;14.470;2023-01-15T01:13:13;96093.76;;;12.22;37.89
47082;BME280;33066;49.296;14.470;2023-01-15T01:15:37;96092.06;;;12.82;37.79
47082;BME280;33066;49.296;14.470;2023-01-15T01:18:04;96087.89;;;12.25;37.86
47082;BME280;33066;49.296;14.470;2023-01-15T01:20:28;96090.67;;;12.81;37.70
47082;BME280;33066;49.296;14.470;2023-01-15T01:22:53;96087.69;;;12.89;37.69
47082;BME280;33066;49.296;14.470;2023-01-15T01:25:18;96091.47;;;12.52;37.56
47082;BME280;33066;49.296;14.470;2023-01-15T01:27:44;96083.59;;;12.51;37.62
47082;BME280;33066;49.296;14.470;2023-01-15T01:30:10;96076.55;;;12.72;37.67
47082;BME280;33066;49.296;14.470;2023-01-15T01:32:34;96077.64;;;12.76;37.76
47082;BME280;33066;49.296;14.470;2023-01-15T01:35:00;96077.83;;;12.68;37.62
47082;BME280;33066;49.296;14.470;2023-01-15T01:37:25;96073.98;;;12.95;37.53
47082;BME280;33066;49.296;14.470;2023-01-15T01:39:51;96062.93;;;12.68;37.54
47082;BME280;33066;49.296;14.470;2023-01-15T01:42:16;96066.47;;;12.84;37.38
47082;BME280;33066;49.296;14.470;2023-01-15T01:44:57;96063.42;;;13.28;37.39
47082;BME280;33066;49.296;14.470;2023-01-15T01:47:09;96062.67;;;13.01;37.36
47082;BME280;33066;49.296;14.470;2023-01-15T01:49:32;96059.69;;;12.87;37.35
47082;BME280;33066;49.296;14.470;2023-01-15T01:52:01;96060.39;;;12.99;37.31
47082;BME280;33066;49.296;14.470;2023-01-15T01:54:24;96050.23;;;12.73;37.29
47082;BME280;33066;49.296;14.470;2023-01-15T01:56:48;96046.23;;;12.99;37.24
47082;BME280;33066;49.296;14.470;2023-01-15T01:59:13;96047.64;;;13.20;37.04
47082;BME280;33066;49.296;14.470;2023-01-15T02:01:38;96045.87;;;13.05;37.15
47082;BME280;33066;49.296;14.470;2023-01-15T02:04:05;96038.15;;;12.58;37.07
47082;BME280;33066;49.296;14.470;2023-01-15T02:06:29;96040.75;;;12.74;36.90
47082;BME280;33066;49.296;14.470;2023-01-15T02:08:55;96043.48;;;12.83;36.93
47082;BME280;33066;49.296;14.470;2023-01-15T02:11:21;96037.00;;;12.91;36.74
47082;BME280;33066;49.296;14.470;2023-01-15T02:13:52;96037.05;;;12.50;36.63
47082;BME280;33066;49.296;14.470;2023-01-15T02:16:15;96033.22;;;12.91;36.54
47082;BME280;33066;49.296;14.470;2023-01-15T02:18:42;96029.32;;;12.77;36.31
47082;BME280;33066;49.296;14.470;2023-01-15T02:21:08;96030.33;;;12.86;36.16
47082;BME280;33066;49.296;14.470;2023-01-15T02:28:23;96018.65;;;12.68;35.93
47082;BME280;33066;49.296;14.470;2023-01-15T02:30:46;96010.95;;;13.21;35.74
47082;BME280;33066;49.296;14.470;2023-01-15T02:33:10;96011.36;;;12.94;35.41
47082;BME280;33066;49.296;14.470;2023-01-15T02:35:38;96025.64;;;12.65;35.45
47082;BME280;33066;49.296;14.470;2023-01-15T02:38:00;96014.03;;;12.75;35.60
47082;BME280;33066;49.296;14.470;2023-01-15T02:40:25;96006.08;;;13.13;35.50
47082;BME280;33066;49.296;14.470;2023-01-15T02:42:49;96001.43;;;13.37;35.42
47082;BME280;33066;49.296;14.470;2023-01-15T02:45:19;96009.22;;;13.13;35.15
47082;BME280;33066;49.296;14.470;2023-01-15T02:47:42;96000.08;;;13.31;35.12
47082;BME280;33066;49.296;14.470;2023-01-15T02:50:10;95997.77;;;13.19;35.26
47082;BME280;33066;49.296;14.470;2023-01-15T02:52:36;95992.03;;;13.21;35.49
47082;BME280;33066;49.296;14.470;2023-01-15T02:55:01;95986.17;;;13.22;35.99
47082;BME280;33066;49.296;14.470;2023-01-15T02:57:23;95988.67;;;13.22;35.84
47082;BME280;33066;49.296;14.470;2023-01-15T02:59:48;95990.24;;;13.24;35.83
47082;BME280;33066;49.296;14.470;2023-01-15T03:02:17;95987.28;;;12.95;35.78
47082;BME280;33066;49.296;14.470;2023-01-15T03:04:42;95986.36;;;13.35;36.01
47082;BME280;33066;49.296;14.470;2023-01-15T03:07:09;95990.20;;;12.96;36.17
47082;BME280;33066;49.296;14.470;2023-01-15T03:09:28;95991.64;;;13.15;36.30
47082;BME280;33066;49.296;14.470;2023-01-15T03:12:00;95988.71;;;13.31;36.74
47082;BME280;33066;49.296;14.470;2023-01-15T03:14:23;95990.68;;;13.42;36.64
47082;BME280;33066;49.296;14.470;2023-01-15T03:16:48;95994.72;;;13.48;36.63
47082;BME280;33066;49.296;14.470;2023-01-15T03:19:18;95985.42;;;13.25;37.16
47082;BME280;33066;49.296;14.470;2023-01-15T03:21:45;95989.70;;;13.45;37.53
47082;BME280;33066;49.296;14.470;2023-01-15T03:24:01;95987.12;;;12.81;38.36
47082;BME280;33066;49.296;14.470;2023-01-15T03:26:26;95985.16;;;12.92;38.59
47082;BME280;33066;49.296;14.470;2023-01-15T03:28:51;95983.17;;;13.04;39.21
47082;BME280;33066;49.296;14.470;2023-01-15T03:31:15;95981.68;;;12.75;39.27
47082;BME280;33066;49.296;14.470;2023-01-15T03:33:41;95975.63;;;12.99;39.19
47082;BME280;33066;49.296;14.470;2023-01-15T03:36:07;95972.94;;;13.18;39.39
47082;BME280;33066;49.296;14.470;2023-01-15T03:38:33;95965.45;;;12.97;39.70
47082;BME280;33066;49.296;14.470;2023-01-15T03:41:09;95960.80;;;12.79;40.23
47082;BME280;33066;49.296;14.470;2023-01-15T03:43:28;95956.30;;;12.90;40.08
47082;BME280;33066;49.296;14.470;2023-01-15T03:45:50;95960.98;;;12.91;39.88
47082;BME280;33066;49.296;14.470;2023-01-15T03:48:19;95956.91;;;13.06;39.87
47082;BME280;33066;49.296;14.470;2023-01-15T03:50:45;95959.53;;;12.92;40.09
47082;BME280;33066;49.296;14.470;2023-01-15T03:53:08;95953.71;;;13.36;40.30
47082;BME280;33066;49.296;14.470;2023-01-15T03:55:35;95952.37;;;13.24;39.86
47082;BME280;33066;49.296;14.470;2023-01-15T03:57:58;95951.78;;;13.07;40.04
47082;BME280;33066;49.296;14.470;2023-01-15T04:00:24;95959.44;;;12.90;39.81
47082;BME280;33066;49.296;14.470;2023-01-15T04:02:46;95957.08;;;12.66;39.83
47082;BME280;33066;49.296;14.470;2023-01-15T04:05:10;95957.00;;;12.85;40.09
47082;BME280;33066;49.296;14.470;2023-01-15T04:07:35;95958.14;;;12.54;39.99
47082;BME280;33066;49.296;14.470;2023-01-15T04:10:01;95955.55;;;12.43;40.28
47082;BME280;33066;49.296;14.470;2023-01-15T04:13:02;95949.97;;;12.87;39.89
47082;BME280;33066;49.296;14.470;2023-01-15T04:15:27;95948.24;;;12.90;40.09
47082;BME280;33066;49.296;14.470;2023-01-15T04:17:52;95946.31;;;12.98;39.81
47082;BME280;33066;49.296;14.470;2023-01-15T04:20:18;95946.16;;;12.73;40.36
47082;BME280;33066;49.296;14.470;2023-01-15T04:22:43;95936.25;;;12.82;40.42
47082;BME280;33066;49.296;14.470;2023-01-15T04:25:09;95928.81;;;12.80;39.97
47082;BME280;33066;49.296;14.470;2023-01-15T04:27:34;95935.11;;;12.66;39.95
47082;BME280;33066;49.296;14.470;2023-01-15T04:30:01;95930.73;;;12.55;40.03
47082;BME280;33066;49.296;14.470;2023-01-15T04:32:24;95925.14;;;12.29;40.16
47082;BME280;33066;49.296;14.470;2023-01-15T04:34:51;95926.13;;;12.14;40.67
47082;BME280;33066;49.296;14.470;2023-01-15T04:37:16;95918.10;;;12.08;40.30
47082;BME280;33066;49.296;14.470;2023-01-15T04:39:40;95916.56;;;12.16;40.15
47082;BME280;33066;49.296;14.470;2023-01-15T04:42:10;95910.28;;;12.10;40.33
47082;BME280;33066;49.296;14.470;2023-01-15T04:44:32;95904.75;;;12.26;40.20
47082;BME280;33066;49.296;14.470;2023-01-15T04:46:59;95903.38;;;12.39;40.05
47082;BME280;33066;49.296;14.470;2023-01-15T04:49:22;95893.83;;;12.32;40.04
47082;BME280;33066;49.296;14.470;2023-01-15T04:51:47;95881.58;;;12.36;40.07
47082;BME280;33066;49.296;14.470;2023-01-15T04:54:14;95876.88;;;12.22;40.44
47082;BME280;33066;49.296;14.470;2023-01-15T04:56:40;95890.17;;;12.06;40.62
47082;BME280;33066;49.296;14.470;2023-01-15T04:59:03;95881.79;;;11.90;40.50
47082;BME280;33066;49.296;14.470;2023-01-15T05:01:29;95869.49;;;12.04;40.23
47082;BME280;33066;49.296;14.470;2023-01-15T05:03:54;95872.13;;;12.25;40.25
47082;BME280;33066;49.296;14.470;2023-01-15T05:06:20;95861.88;;;12.25;40.25
47082;BME280;33066;49.296;14.470;2023-01-15T05:08:45;95868.20;;;12.07;40.31
47082;BME280;33066;49.296;14.470;2023-01-15T05:11:11;95856.82;;;12.27;39.69
47082;BME280;33066;49.296;14.470;2023-01-15T05:13:36;95855.53;;;11.87;39.43
47082;BME280;33066;49.296;14.470;2023-01-15T05:16:08;95849.51;;;12.21;39.30
47082;BME280;33066;49.296;14.470;2023-01-15T05:18:26;95846.27;;;11.88;39.46
47082;BME280;33066;49.296;14.470;2023-01-15T05:20:52;95846.18;;;12.06;39.34
47082;BME280;33066;49.296;14.470;2023-01-15T05:23:17;95844.14;;;11.84;39.38
47082;BME280;33066;49.296;14.470;2023-01-15T05:25:42;95843.54;;;11.70;39.75
47082;BME280;33066;49.296;14.470;2023-01-15T05:28:08;95840.25;;;11.89;39.47
47082;BME280;33066;49.296;14.470;2023-01-15T05:30:33;95838.81;;;12.12;38.94
47082;BME280;33066;49.296;14.470;2023-01-15T05:32:59;95841.66;;;12.18;38.75
47082;BME280;33066;49.296;14.470;2023-01-15T05:35:24;95835.62;;;11.77;38.28
47082;BME280;33066;49.296;14.470;2023-01-15T05:37:49;95830.34;;;12.19;37.98
47082;BME280;33066;49.296;14.470;2023-01-15T05:40:16;95825.15;;;12.08;37.64
47082;BME280;33066;49.296;14.470;2023-01-15T05:42:41;95818.01;;;11.83;37.80
47082;BME280;33066;49.296;14.470;2023-01-15T05:45:06;95819.57;;;11.81;37.71
47082;BME280;33066;49.296;14.470;2023-01-15T05:47:31;95816.16;;;12.02;37.60
47082;BME280;33066;49.296;14.470;2023-01-15T05:49:56;95817.01;;;12.29;37.62
47082;BME280;33066;49.296;14.470;2023-01-15T05:52:21;95808.64;;;12.03;36.78
47082;BME280;33066;49.296;14.470;2023-01-15T05:54:48;95801.99;;;12.07;36.82
47082;BME280;33066;49.296;14.470;2023-01-15T05:57:12;95800.24;;;12.14;36.59
47082;BME280;33066;49.296;14.470;2023-01-15T05:59:38;95804.41;;;12.16;36.45
47082;BME280;33066;49.296;14.470;2023-01-15T06:02:03;95805.29;;;11.94;35.82
47082;BME280;33066;49.296;14.470;2023-01-15T06:04:28;95805.78;;;11.95;35.87
47082;BME280;33066;49.296;14.470;2023-01-15T06:06:55;95809.03;;;12.12;35.71
47082;BME280;33066;49.296;14.470;2023-01-15T06:09:19;95803.12;;;12.15;35.49
47082;BME280;33066;49.296;14.470;2023-01-15T06:11:45;95803.68;;;12.22;35.26
47082;BME280;33066;49.296;14.470;2023-01-15T06:14:10;95805.34;;;12.18;35.17
47082;BME280;33066;49.296;14.470;2023-01-15T06:16:38;95789.22;;;12.58;35.19
47082;BME280;33066;49.296;14.470;2023-01-15T06:19:01;95787.47;;;12.38;34.89
47082;BME280;33066;49.296;14.470;2023-01-15T06:21:26;95784.48;;;12.13;34.66
47082;BME280;33066;49.296;14.470;2023-01-15T06:23:52;95779.62;;;12.06;34.46
47082;BME280;33066;49.296;14.470;2023-01-15T06:26:17;95779.09;;;12.34;34.87
47082;BME280;33066;49.296;14.470;2023-01-15T06:28:43;95784.25;;;12.18;34.75
47082;BME280;33066;49.296;14.470;2023-01-15T06:31:09;95789.27;;;12.19;34.62
47082;BME280;33066;49.296;14.470;2023-01-15T06:33:33;95792.88;;;12.30;34.81
47082;BME280;33066;49.296;14.470;2023-01-15T06:36:02;95791.68;;;12.26;34.88
47082;BME280;33066;49.296;14.470;2023-01-15T06:38:23;95787.69;;;12.31;35.07
47082;BME280;33066;49.296;14.470;2023-01-15T06:40:49;95784.75;;;12.28;35.16
47082;BME280;33066;49.296;14.470;2023-01-15T06:43:14;95777.58;;;12.32;35.16
47082;BME280;33066;49.296;14.470;2023-01-15T06:45:40;95774.49;;;12.37;35.33
47082;BME280;33066;49.296;14.470;2023-01-15T06:48:05;95773.08;;;12.15;34.81
47082;BME280;33066;49.296;14.470;2023-01-15T06:50:30;95774.02;;;12.59;34.65
47082;BME280;33066;49.296;14.470;2023-01-15T06:52:55;95770.94;;;12.57;34.68
47082;BME280;33066;49.296;14.470;2023-01-15T06:55:21;95760.91;;;12.55;34.39
47082;BME280;33066;49.296;14.470;2023-01-15T06:57:46;95759.11;;;12.47;34.32
47082;BME280;33066;49.296;14.470;2023-01-15T07:00:12;95763.09;;;12.40;34.39
47082;BME280;33066;49.296;14.470;2023-01-15T07:02:37;95765.31;;;12.49;34.36
47082;BME280;33066;49.296;14.470;2023-01-15T07:05:03;95764.70;;;12.27;34.25
47082;BME280;33066;49.296;14.470;2023-01-15T07:07:28;95765.82;;;12.89;34.10
47082;BME280;33066;49.296;14.470;2023-01-15T07:09:53;95766.79;;;12.63;33.87
47082;BME280;33066;49.296;14.470;2023-01-15T07:12:19;95769.69;;;12.57;33.90
47082;BME280;33066;49.296;14.470;2023-01-15T07:14:44;95764.98;;;12.47;33.66
47082;BME280;33066;49.296;14.470;2023-01-15T07:17:09;95757.52;;;12.61;33.97
47082;BME280;33066;49.296;14.470;2023-01-15T07:19:34;95743.96;;;12.63;33.73
47082;BME280;33066;49.296;14.470;2023-01-15T07:22:00;95740.84;;;12.44;33.70
47082;BME280;33066;49.296;14.470;2023-01-15T07:24:26;95738.77;;;12.59;33.92
47082;BME280;33066;49.296;14.470;2023-01-15T07:26:50;95749.20;;;12.56;33.84
47082;BME280;33066;49.296;14.470;2023-01-15T07:29:16;95756.14;;;12.42;33.90
47082;BME280;33066;49.296;14.470;2023-01-15T07:31:41;95757.42;;;12.28;34.08
47082;BME280;33066;49.296;14.470;2023-01-15T07:34:07;95765.30;;;12.33;34.07
47082;BME280;33066;49.296;14.470;2023-01-15T07:36:32;95764.78;;;12.40;34.09
47082;BME280;33066;49.296;14.470;2023-01-15T07:38:57;95766.05;;;12.47;34.07
47082;BME280;33066;49.296;14.470;2023-01-15T07:41:22;95747.76;;;12.53;34.20
47082;BME280;33066;49.296;14.470;2023-01-15T07:43:48;95747.69;;;12.77;34.14
47082;BME280;33066;49.296;14.470;2023-01-15T07:46:13;95751.06;;;12.75;33.78
47082;BME280;33066;49.296;14.470;2023-01-15T07:48:38;95749.75;;;12.71;33.74
47082;BME280;33066;49.296;14.470;2023-01-15T07:51:04;95749.39;;;12.55;33.81
47082;BME280;33066;49.296;14.470;2023-01-15T07:53:29;95745.66;;;12.94;33.96
47082;BME280;33066;49.296;14.470;2023-01-15T07:55:54;95747.76;;;13.05;33.74
47082;BME280;33066;49.296;14.470;2023-01-15T07:58:20;95745.63;;;12.79;33.82
47082;BME280;33066;49.296;14.470;2023-01-15T08:00:47;95754.73;;;12.72;33.69
47082;BME280;33066;49.296;14.470;2023-01-15T08:03:10;95753.70;;;12.63;33.72
47082;BME280;33066;49.296;14.470;2023-01-15T08:05:36;95749.43;;;13.25;33.71
47082;BME280;33066;49.296;14.470;2023-01-15T08:08:01;95740.42;;;12.95;33.73
47082;BME280;33066;49.296;14.470;2023-01-15T08:10:26;95724.45;;;13.04;33.61
47082;BME280;33066;49.296;14.470;2023-01-15T08:12:52;95732.71;;;12.91;33.79
47082;BME280;33066;49.296;14.470;2023-01-15T08:15:17;95729.88;;;12.86;33.82
47082;BME280;33066;49.296;14.470;2023-01-15T08:17:44;95714.14;;;12.91;34.02
47082;BME280;33066;49.296;14.470;2023-01-15T08:20:11;95719.18;;;12.94;34.03
47082;BME280;33066;49.296;14.470;2023-01-15T08:22:33;95714.95;;;12.68;34.15
47082;BME280;33066;49.296;14.470;2023-01-15T08:24:58;95711.75;;;13.16;34.45
47082;BME280;33066;49.296;14.470;2023-01-15T08:27:24;95706.00;;;13.03;34.38
47082;BME280;33066;49.296;14.470;2023-01-15T08:29:49;95706.81;;;12.93;34.35
47082;BME280;33066;49.296;14.470;2023-01-15T08:32:14;95716.37;;;12.91;34.19
47082;BME280;33066;49.296;14.470;2023-01-15T08:34:41;95720.89;;;13.12;34.48
47082;BME280;33066;49.296;14.470;2023-01-15T08:37:05;95718.18;;;12.86;34.54
47082;BME280;33066;49.296;14.470;2023-01-15T08:39:30;95719.74;;;13.27;34.53
47082;BME280;33066;49.296;14.470;2023-01-15T08:41:56;95717.18;;;13.21;34.43
47082;BME280;33066;49.296;14.470;2023-01-15T08:44:22;95715.85;;;13.29;34.35
47082;BME280;33066;49.296;14.470;2023-01-15T08:46:46;95710.87;;;13.46;34.21
47082;BME280;33066;49.296;14.470;2023-01-15T08:49:12;95710.57;;;13.56;34.22
47082;BME280;33066;49.296;14.470;2023-01-15T08:51:37;95703.30;;;13.50;34.33
47082;BME280;33066;49.296;14.470;2023-01-15T08:54:02;95694.93;;;13.62;34.45
47082;BME280;33066;49.296;14.470;2023-01-15T08:56:28;95700.53;;;13.33;34.50
47082;BME280;33066;49.296;14.470;2023-01-15T08:58:53;95698.04;;;13.56;34.66
47082;BME280;33066;49.296;14.470;2023-01-15T09:01:18;95692.95;;;13.55;34.74
47082;BME280;33066;49.296;14.470;2023-01-15T09:03:44;95692.97;;;13.45;35.01
47082;BME280;33066;49.296;14.470;2023-01-15T09:06:09;95696.35;;;13.51;35.09
47082;BME280;33066;49.296;14.470;2023-01-15T09:08:35;95692.12;;;12.60;35.26
47082;BME280;33066;49.296;14.470;2023-01-15T09:11:01;95693.76;;;13.56;34.25
47082;BME280;33066;49.296;14.470;2023-01-15T09:13:27;95685.01;;;13.86;34.45
47082;BME280;33066;49.296;14.470;2023-01-15T09:15:51;95683.29;;;13.84;34.78
47082;BME280;33066;49.296;14.470;2023-01-15T09:18:17;95690.23;;;13.76;35.21
47082;BME280;33066;49.296;14.470;2023-01-15T09:20:43;95690.46;;;13.29;35.62
47082;BME280;33066;49.296;14.470;2023-01-15T09:23:08;95688.14;;;13.24;35.70
47082;BME280;33066;49.296;14.470;2023-01-15T09:25:33;95685.58;;;13.51;35.81
47082;BME280;33066;49.296;14.470;2023-01-15T09:27:58;95682.27;;;13.60;35.75
47082;BME280;33066;49.296;14.470;2023-01-15T09:30:24;95678.53;;;13.61;35.76
47082;BME280;33066;49.296;14.470;2023-01-15T09:32:49;95672.05;;;13.30;35.90
47082;BME280;33066;49.296;14.470;2023-01-15T09:35:15;95675.79;;;13.36;35.99
47082;BME280;33066;49.296;14.470;2023-01-15T09:37:41;95674.38;;;13.18;36.25
47082;BME280;33066;49.296;14.470;2023-01-15T09:40:16;95671.33;;;13.58;36.18
47082;BME280;33066;49.296;14.470;2023-01-15T09:42:42;95674.28;;;13.90;36.26
47082;BME280;33066;49.296;14.470;2023-01-15T09:45:08;95669.89;;;13.62;36.50
47082;BME280;33066;49.296;14.470;2023-01-15T09:47:29;95666.37;;;13.50;36.55
47082;BME280;33066;49.296;14.470;2023-01-15T09:49:59;95668.06;;;13.77;36.65
47082;BME280;33066;49.296;14.470;2023-01-15T09:52:23;95665.56;;;13.63;36.66
47082;BME280;33066;49.296;14.470;2023-01-15T09:54:47;95658.54;;;13.91;36.62
47082;BME280;33066;49.296;14.470;2023-01-15T09:57:09;95649.18;;;13.99;36.71
47082;BME280;33066;49.296;14.470;2023-01-15T09:59:33;95640.70;;;14.17;36.58
47082;BME280;33066;49.296;14.470;2023-01-15T10:01:56;95639.39;;;14.08;36.34
47082;BME280;33066;49.296;14.470;2023-01-15T10:04:32;95640.37;;;14.17;36.40
47082;BME280;33066;49.296;14.470;2023-01-15T10:06:53;95640.96;;;14.38;36.33
47082;BME280;33066;49.296;14.470;2023-01-15T10:09:14;95635.15;;;14.23;36.32
47082;BME280;33066;49.296;14.470;2023-01-15T10:11:41;95628.35;;;14.22;36.51
47082;BME280;33066;49.296;14.470;2023-01-15T10:14:07;95617.78;;;14.33;36.31
47082;BME280;33066;49.296;14.470;2023-01-15T10:16:31;95616.11;;;14.46;36.67
47082;BME280;33066;49.296;14.470;2023-01-15T10:18:54;95608.82;;;14.60;36.48
47082;BME280;33066;49.296;14.470;2023-01-15T10:21:28;95600.45;;;14.62;36.21
47082;BME280;33066;49.296;14.470;2023-01-15T10:23:57;95605.82;;;14.45;36.33
47082;BME280;33066;49.296;14.470;2023-01-15T10:26:14;95607.64;;;14.80;36.07
47082;BME280;33066;49.296;14.470;2023-01-15T10:28:45;95604.42;;;14.92;35.98
47082;BME280;33066;49.296;14.470;2023-01-15T10:31:05;95597.68;;;14.92;35.89
47082;BME280;33066;49.296;14.470;2023-01-15T10:33:42;95593.92;;;14.92;36.07
47082;BME280;33066;49.296;14.470;2023-01-15T10:35:56;95595.43;;;14.90;35.81
47082;BME280;33066;49.296;14.470;2023-01-15T10:38:23;95597.97;;;14.42;35.94
47082;BME280;33066;49.296;14.470;2023-01-15T10:43:15;95596.99;;;15.04;35.69
47082;BME280;33066;49.296;14.470;2023-01-15T10:45:34;95592.82;;;15.01;35.81
47082;BME280;33066;49.296;14.470;2023-01-15T10:48:03;95585.41;;;15.06;35.86
47082;BME280;33066;49.296;14.470;2023-01-15T10:50:24;95585.49;;;15.13;35.72
47082;BME280;33066;49.296;14.470;2023-01-15T10:52:54;95590.77;;;14.97;35.68
47082;BME280;33066;49.296;14.470;2023-01-15T10:55:20;95587.78;;;14.95;35.69
47082;BME280;33066;49.296;14.470;2023-01-15T10:57:43;95582.58;;;15.34;35.78
47082;BME280;33066;49.296;14.470;2023-01-15T11:00:04;95576.31;;;15.34;35.61
47082;BME280;33066;49.296;14.470;2023-01-15T11:02:31;95577.12;;;15.32;35.63
47082;BME280;33066;49.296;14.470;2023-01-15T11:04:55;95574.60;;;15.09;35.75
47082;BME280;33066;49.296;14.470;2023-01-15T11:07:21;95578.05;;;15.33;35.78
47082;BME280;33066;49.296;14.470;2023-01-15T11:09:45;95572.84;;;14.88;35.78
47082;BME280;33066;49.296;14.470;2023-01-15T11:12:20;95573.80;;;15.37;35.77
47082;BME280;33066;49.296;14.470;2023-01-15T11:14:37;95576.48;;;15.36;35.84
47082;BME280;33066;49.296;14.470;2023-01-15T11:17:08;95579.82;;;15.09;36.06
47082;BME280;33066;49.296;14.470;2023-01-15T11:19:29;95573.57;;;15.15;36.13
47082;BME280;33066;49.296;14.470;2023-01-15T11:21:54;95569.10;;;14.72;36.10
47082;BME280;33066;49.296;14.470;2023-01-15T11:24:18;95552.65;;;14.80;36.09
47082;BME280;33066;49.296;14.470;2023-01-15T11:26:46;95555.75;;;14.96;35.92
47082;BME280;33066;49.296;14.470;2023-01-15T11:29:19;95546.18;;;15.46;35.92
47082;BME280;33066;49.296;14.470;2023-01-15T11:31:38;95547.46;;;15.13;35.85
47082;BME280;33066;49.296;14.470;2023-01-15T11:34:02;95545.25;;;15.71;35.76
47082;BME280;33066;49.296;14.470;2023-01-15T11:36:27;95545.65;;;15.33;35.67
47082;BME280;33066;49.296;14.470;2023-01-15T11:38:52;95547.45;;;15.61;35.69
47082;BME280;33066;49.296;14.470;2023-01-15T11:41:20;95546.66;;;15.62;35.60
47082;BME280;33066;49.296;14.470;2023-01-15T11:43:42;95548.45;;;15.33;35.63
47082;BME280;33066;49.296;14.470;2023-01-15T11:46:22;95559.87;;;15.28;35.72
47082;BME280;33066;49.296;14.470;2023-01-15T11:48:41;95559.10;;;15.66;35.81
47082;BME280;33066;49.296;14.470;2023-01-15T11:51:05;95559.55;;;15.24;36.06
47082;BME280;33066;49.296;14.470;2023-01-15T11:53:28;95555.41;;;15.39;36.12
47082;BME280;33066;49.296;14.470;2023-01-15T11:55:51;95568.09;;;14.95;36.36
47082;BME280;33066;49.296;14.470;2023-01-15T11:58:14;95562.79;;;14.88;36.71
47082;BME280;33066;49.296;14.470;2023-01-15T12:00:43;95556.29;;;15.04;36.78
47082;BME280;33066;49.296;14.470;2023-01-15T12:03:14;95549.68;;;15.02;36.73
47082;BME280;33066;49.296;14.470;2023-01-15T12:05:34;95551.43;;;15.09;36.57
47082;BME280;33066;49.296;14.470;2023-01-15T12:07:57;95568.15;;;15.06;36.68
47082;BME280;33066;49.296;14.470;2023-01-15T12:10:23;95579.14;;;15.01;37.74
47082;BME280;33066;49.296;14.470;2023-01-15T12:12:59;95614.85;;;14.80;39.09
47082;BME280;33066;49.296;14.470;2023-01-15T12:15:27;95625.44;;;14.17;41.70
47082;BME280;33066;49.296;14.470;2023-01-15T12:17:51;95624.37;;;14.01;42.67
47082;BME280;33066;49.296;14.470;2023-01-15T12:20:13;95630.93;;;13.66;42.80
47082;BME280;33066;49.296;14.470;2023-01-15T12:22:43;95639.34;;;13.49;43.14
47082;BME280;33066;49.296;14.470;2023-01-15T12:25:06;95649.45;;;13.26;43.82
47082;BME280;33066;49.296;14.470;2023-01-15T12:29:47;95669.25;;;13.09;44.62
47082;BME280;33066;49.296;14.470;2023-01-15T12:32:17;95675.61;;;13.08;44.61
47082;BME280;33066;49.296;14.470;2023-01-15T12:34:40;95685.16;;;13.03;44.55
47082;BME280;33066;49.296;14.470;2023-01-15T12:37:06;95683.32;;;13.10;44.65
47082;BME280;33066;49.296;14.470;2023-01-15T12:39:30;95697.20;;;13.09;44.80
47082;BME280;33066;49.296;14.470;2023-01-15T12:41:53;95693.51;;;13.14;44.48
47082;BME280;33066;49.296;14.470;2023-01-15T12:44:20;95678.50;;;13.22;44.65
47082;BME280;33066;49.296;14.470;2023-01-15T12:46:44;95679.63;;;13.39;43.94
47082;BME280;33066;49.296;14.470;2023-01-15T12:49:18;95668.63;;;13.36;43.75